sensor_id;sensor_type;location;lat;lon;timestamp;temperature;humidity
63976;DHT22;50167;47.958;21.780;2023-02-03T00:01:51;5.18;54.93
63976;DHT22;50167;47.958;21.780;2023-02-03T00:04:18;5.50;53.64
63976;DHT22;50167;47.958;21.780;2023-02-03T00:06:44;5.14;54.47
63976;DHT22;50167;47.958;21.780;2023-02-03T00:09:11;5.43;52.72
63976;DHT22;50167;47.958;21.780;2023-02-03T00:11:37;5.14;53.89
63976;DHT22;50167;47.958;21.780;2023-02-03T00:14:04;5.33;52.36
63976;DHT22;50167;47.958;21.780;2023-02-03T00:16:32;5.12;53.14
63976;DHT22;50167;47.958;21.780;2023-02-03T00:18:58;5.36;51.84
63976;DHT22;50167;47.958;21.780;2023-02-03T00:21:25;5.24;52.28
63976;DHT22;50167;47.958;21.780;2023-02-03T00:23:51;5.46;51.14
63976;DHT22;50167;47.958;21.780;2023-02-03T00:26:19;5.28;51.88
63976;DHT22;50167;47.958;21.780;2023-02-03T00:28:45;5.43;51.09
63976;DHT22;50167;47.958;21.780;2023-02-03T00:31:19;5.16;52.02
63976;DHT22;50167;47.958;21.780;2023-02-03T00:33:47;5.46;51.08
63976;DHT22;50167;47.958;21.780;2023-02-03T00:36:13;5.32;51.80
63976;DHT22;50167;47.958;21.780;2023-02-03T00:38:39;5.53;50.81
63976;DHT22;50167;47.958;21.780;2023-02-03T00:41:06;5.01;51.81
63976;DHT22;50167;47.958;21.780;2023-02-03T00:43:32;5.65;50.27
63976;DHT22;50167;47.958;21.780;2023-02-03T00:45:59;5.21;51.20
63976;DHT22;50167;47.958;21.780;2023-02-03T00:48:25;5.50;50.74
63976;DHT22;50167;47.958;21.780;2023-02-03T00:50:51;5.29;50.86
63976;DHT22;50167;47.958;21.780;2023-02-03T00:53:17;5.38;51.01
63976;DHT22;50167;47.958;21.780;2023-02-03T00:55:44;5.28;50.74
63976;DHT22;50167;47.958;21.780;2023-02-03T00:58:10;5.47;50.93
63976;DHT22;50167;47.958;21.780;2023-02-03T01:00:36;5.26;50.96
63976;DHT22;50167;47.958;21.780;2023-02-03T01:03:03;5.41;51.27
63976;DHT22;50167;47.958;21.780;2023-02-03T01:05:29;5.31;50.79
63976;DHT22;50167;47.958;21.780;2023-02-03T01:07:55;5.41;51.26
63976;DHT22;50167;47.958;21.780;2023-02-03T01:10:22;5.43;50.59
63976;DHT22;50167;47.958;21.780;2023-02-03T01:12:48;5.14;51.94
63976;DHT22;50167;47.958;21.780;2023-02-03T01:15:14;5.50;50.61
63976;DHT22;50167;47.958;21.780;2023-02-03T01:17:40;5.14;51.86
63976;DHT22;50167;47.958;21.780;2023-02-03T01:20:08;5.49;50.75
63976;DHT22;50167;47.958;21.780;2023-02-03T01:22:36;5.16;51.91
63976;DHT22;50167;47.958;21.780;2023-02-03T01:25:03;5.53;50.84
63976;DHT22;50167;47.958;21.780;2023-02-03T01:27:32;5.08;52.09
63976;DHT22;50167;47.958;21.780;2023-02-03T01:29:59;5.50;50.98
63976;DHT22;50167;47.958;21.780;2023-02-03T01:32:26;5.14;51.63
63976;DHT22;50167;47.958;21.780;2023-02-03T01:34:52;5.52;51.00
63976;DHT22;50167;47.958;21.780;2023-02-03T01:37:18;5.14;52.05
63976;DHT22;50167;47.958;21.780;2023-02-03T01:39:45;5.46;51.09
63976;DHT22;50167;47.958;21.780;2023-02-03T01:42:15;5.14;52.17
63976;DHT22;50167;47.958;21.780;2023-02-03T01:47:21;5.15;52.19
63976;DHT22;50167;47.958;21.780;2023-02-03T01:50:05;5.42;50.96
63976;DHT22;50167;47.958;21.780;2023-02-03T01:52:22;5.18;51.79
63976;DHT22;50167;47.958;21.780;2023-02-03T01:54:51;5.42;51.05
63976;DHT22;50167;47.958;21.780;2023-02-03T01:57:27;5.11;52.72
63976;DHT22;50167;47.958;21.780;2023-02-03T01:59:55;5.38;51.37
63976;DHT22;50167;47.958;21.780;2023-02-03T02:02:22;5.21;52.87
63976;DHT22;50167;47.958;21.780;2023-02-03T02:05:04;5.50;51.18
63976;DHT22;50167;47.958;21.780;2023-02-03T02:07:31;5.14;52.81
63976;DHT22;50167;47.958;21.780;2023-02-03T02:09:59;5.53;51.78
63976;DHT22;50167;47.958;21.780;2023-02-03T02:12:25;5.07;52.23
63976;DHT22;50167;47.958;21.780;2023-02-03T02:14:52;5.50;52.57
63976;DHT22;50167;47.958;21.780;2023-02-03T02:20:33;5.56;53.05
63976;DHT22;50167;47.958;21.780;2023-02-03T02:32:13;5.21;51.12
63976;DHT22;50167;47.958;21.780;2023-02-03T02:40:49;5.36;51.91
63976;DHT22;50167;47.958;21.780;2023-02-03T02:43:45;5.35;53.66
63976;DHT22;50167;47.958;21.780;2023-02-03T02:46:15;5.36;51.57
63976;DHT22;50167;47.958;21.780;2023-02-03T02:48:53;5.26;53.36
63976;DHT22;50167;47.958;21.780;2023-02-03T02:51:20;5.46;51.33
63976;DHT22;50167;47.958;21.780;2023-02-03T02:53:55;5.14;53.34
63976;DHT22;50167;47.958;21.780;2023-02-03T02:56:24;5.43;51.92
63976;DHT22;50167;47.958;21.780;2023-02-03T02:58:52;5.18;53.24
63976;DHT22;50167;47.958;21.780;2023-02-03T03:01:20;5.29;52.00
63976;DHT22;50167;47.958;21.780;2023-02-03T03:03:46;5.21;53.08
63976;DHT22;50167;47.958;21.780;2023-02-03T03:06:23;5.39;51.82
63976;DHT22;50167;47.958;21.780;2023-02-03T03:08:54;5.05;53.43
63976;DHT22;50167;47.958;21.780;2023-02-03T03:11:24;5.39;52.09
63976;DHT22;50167;47.958;21.780;2023-02-03T03:13:53;5.14;53.85
63976;DHT22;50167;47.958;21.780;2023-02-03T03:16:26;5.39;52.14
63976;DHT22;50167;47.958;21.780;2023-02-03T03:19:03;5.10;53.99
63976;DHT22;50167;47.958;21.780;2023-02-03T03:21:34;5.33;52.26
63976;DHT22;50167;47.958;21.780;2023-02-03T03:24:06;5.15;53.58
63976;DHT22;50167;47.958;21.780;2023-02-03T03:26:42;5.39;51.26
63976;DHT22;50167;47.958;21.780;2023-02-03T03:29:39;5.21;53.11
63976;DHT22;50167;47.958;21.780;2023-02-03T03:32:05;5.25;51.86
63976;DHT22;50167;47.958;21.780;2023-02-03T03:34:32;5.24;52.71
63976;DHT22;50167;47.958;21.780;2023-02-03T03:40:26;5.45;53.17
63976;DHT22;50167;47.958;21.780;2023-02-03T03:43:05;5.19;51.22
63976;DHT22;50167;47.958;21.780;2023-02-03T03:48:18;5.22;50.20
63976;DHT22;50167;47.958;21.780;2023-02-03T03:50:55;5.42;52.45
63976;DHT22;50167;47.958;21.780;2023-02-03T03:53:21;5.21;50.25
63976;DHT22;50167;47.958;21.780;2023-02-03T03:55:50;5.33;52.84
63976;DHT22;50167;47.958;21.780;2023-02-03T03:58:25;5.28;50.19
63976;DHT22;50167;47.958;21.780;2023-02-03T04:00:54;5.38;54.26
63976;DHT22;50167;47.958;21.780;2023-02-03T04:03:27;5.52;50.06
63976;DHT22;50167;47.958;21.780;2023-02-03T04:05:52;5.12;52.83
63976;DHT22;50167;47.958;21.780;2023-02-03T04:08:18;5.49;50.62
63976;DHT22;50167;47.958;21.780;2023-02-03T04:10:45;5.08;51.32
63976;DHT22;50167;47.958;21.780;2023-02-03T04:13:11;5.49;51.29
63976;DHT22;50167;47.958;21.780;2023-02-03T04:15:38;5.01;51.76
63976;DHT22;50167;47.958;21.780;2023-02-03T04:18:05;5.59;51.62
63976;DHT22;50167;47.958;21.780;2023-02-03T04:20:32;4.98;51.34
63976;DHT22;50167;47.958;21.780;2023-02-03T04:22:59;5.53;51.91
63976;DHT22;50167;47.958;21.780;2023-02-03T04:25:25;5.04;50.37
63976;DHT22;50167;47.958;21.780;2023-02-03T04:27:52;5.54;51.61
63976;DHT22;50167;47.958;21.780;2023-02-03T04:30:18;5.01;51.27
63976;DHT22;50167;47.958;21.780;2023-02-03T04:32:45;5.54;51.83
63976;DHT22;50167;47.958;21.780;2023-02-03T04:35:13;5.04;50.39
63976;DHT22;50167;47.958;21.780;2023-02-03T04:37:40;5.52;51.25
63976;DHT22;50167;47.958;21.780;2023-02-03T04:40:08;5.00;50.60
63976;DHT22;50167;47.958;21.780;2023-02-03T04:42:39;5.52;50.82
63976;DHT22;50167;47.958;21.780;2023-02-03T04:45:08;5.01;50.17
63976;DHT22;50167;47.958;21.780;2023-02-03T04:47:35;5.50;50.91
63976;DHT22;50167;47.958;21.780;2023-02-03T04:50:02;5.03;50.47
63976;DHT22;50167;47.958;21.780;2023-02-03T04:52:29;5.46;50.87
63976;DHT22;50167;47.958;21.780;2023-02-03T04:54:55;5.04;50.91
63976;DHT22;50167;47.958;21.780;2023-02-03T04:57:21;5.35;51.12
63976;DHT22;50167;47.958;21.780;2023-02-03T04:59:47;5.05;51.86
63976;DHT22;50167;47.958;21.780;2023-02-03T05:02:13;5.42;50.99
63976;DHT22;50167;47.958;21.780;2023-02-03T05:04:40;5.03;51.80
63976;DHT22;50167;47.958;21.780;2023-02-03T05:07:06;5.46;50.87
63976;DHT22;50167;47.958;21.780;2023-02-03T05:09:32;5.00;51.22
63976;DHT22;50167;47.958;21.780;2023-02-03T05:11:58;5.52;50.81
63976;DHT22;50167;47.958;21.780;2023-02-03T05:14:24;4.98;50.51
63976;DHT22;50167;47.958;21.780;2023-02-03T05:16:51;5.52;51.36
63976;DHT22;50167;47.958;21.780;2023-02-03T05:19:17;4.95;49.75
63976;DHT22;50167;47.958;21.780;2023-02-03T05:21:43;5.39;53.18
63976;DHT22;50167;47.958;21.780;2023-02-03T05:24:10;5.07;49.31
63976;DHT22;50167;47.958;21.780;2023-02-03T05:26:36;5.43;52.93
63976;DHT22;50167;47.958;21.780;2023-02-03T05:29:03;5.05;49.08
63976;DHT22;50167;47.958;21.780;2023-02-03T05:31:29;5.33;53.04
63976;DHT22;50167;47.958;21.780;2023-02-03T05:33:55;5.15;49.04
63976;DHT22;50167;47.958;21.780;2023-02-03T05:36:22;5.33;53.20
63976;DHT22;50167;47.958;21.780;2023-02-03T05:38:48;5.21;49.09
63976;DHT22;50167;47.958;21.780;2023-02-03T05:41:15;5.29;53.54
63976;DHT22;50167;47.958;21.780;2023-02-03T05:44:00;5.18;48.77
63976;DHT22;50167;47.958;21.780;2023-02-03T05:46:26;5.19;52.66
63976;DHT22;50167;47.958;21.780;2023-02-03T05:48:52;5.25;49.41
63976;DHT22;50167;47.958;21.780;2023-02-03T05:51:18;5.15;52.43
63976;DHT22;50167;47.958;21.780;2023-02-03T05:53:45;5.16;49.71
63976;DHT22;50167;47.958;21.780;2023-02-03T05:56:11;5.21;52.57
63976;DHT22;50167;47.958;21.780;2023-02-03T05:58:37;5.15;48.96
63976;DHT22;50167;47.958;21.780;2023-02-03T06:01:03;5.35;52.83
63976;DHT22;50167;47.958;21.780;2023-02-03T06:03:30;5.15;48.75
63976;DHT22;50167;47.958;21.780;2023-02-03T06:05:56;5.28;52.43
63976;DHT22;50167;47.958;21.780;2023-02-03T06:08:23;5.12;48.81
63976;DHT22;50167;47.958;21.780;2023-02-03T06:10:52;5.31;52.13
63976;DHT22;50167;47.958;21.780;2023-02-03T06:13:19;5.08;49.10
63976;DHT22;50167;47.958;21.780;2023-02-03T06:15:45;5.31;52.90
63976;DHT22;50167;47.958;21.780;2023-02-03T06:18:12;5.21;48.70
63976;DHT22;50167;47.958;21.780;2023-02-03T06:20:38;5.12;51.85
63976;DHT22;50167;47.958;21.780;2023-02-03T06:23:04;5.24;49.31
63976;DHT22;50167;47.958;21.780;2023-02-03T06:25:30;5.26;52.53
63976;DHT22;50167;47.958;21.780;2023-02-03T06:27:58;5.31;48.81
63976;DHT22;50167;47.958;21.780;2023-02-03T06:30:24;5.04;51.37
63976;DHT22;50167;47.958;21.780;2023-02-03T06:32:50;5.38;50.78
63976;DHT22;50167;47.958;21.780;2023-02-03T06:35:17;5.00;50.85
63976;DHT22;50167;47.958;21.780;2023-02-03T06:37:44;5.41;50.98
63976;DHT22;50167;47.958;21.780;2023-02-03T06:40:11;4.95;51.26
63976;DHT22;50167;47.958;21.780;2023-02-03T06:42:37;5.52;51.24
63976;DHT22;50167;47.958;21.780;2023-02-03T06:45:05;5.01;51.05
63976;DHT22;50167;47.958;21.780;2023-02-03T06:47:31;5.63;52.08
63976;DHT22;50167;47.958;21.780;2023-02-03T06:49:57;5.05;50.98
63976;DHT22;50167;47.958;21.780;2023-02-03T06:52:23;5.58;52.77
63976;DHT22;50167;47.958;21.780;2023-02-03T06:54:50;5.10;49.77
63976;DHT22;50167;47.958;21.780;2023-02-03T06:57:16;5.47;52.19
63976;DHT22;50167;47.958;21.780;2023-02-03T06:59:42;5.10;49.83
63976;DHT22;50167;47.958;21.780;2023-02-03T07:02:10;5.52;52.59
63976;DHT22;50167;47.958;21.780;2023-02-03T07:04:36;5.12;49.89
63976;DHT22;50167;47.958;21.780;2023-02-03T07:07:04;5.52;53.32
63976;DHT22;50167;47.958;21.780;2023-02-03T07:09:30;5.18;49.99
63976;DHT22;50167;47.958;21.780;2023-02-03T07:11:57;5.56;53.51
63976;DHT22;50167;47.958;21.780;2023-02-03T07:14:23;5.35;50.03
63976;DHT22;50167;47.958;21.780;2023-02-03T07:16:49;5.43;53.27
63976;DHT22;50167;47.958;21.780;2023-02-03T07:19:15;5.59;49.85
63976;DHT22;50167;47.958;21.780;2023-02-03T07:21:41;5.15;50.05
63976;DHT22;50167;47.958;21.780;2023-02-03T07:24:07;5.63;50.87
63976;DHT22;50167;47.958;21.780;2023-02-03T07:26:33;5.22;49.90
63976;DHT22;50167;47.958;21.780;2023-02-03T07:28:59;5.58;52.10
63976;DHT22;50167;47.958;21.780;2023-02-03T07:31:25;5.35;50.27
63976;DHT22;50167;47.958;21.780;2023-02-03T07:33:52;5.49;53.08
63976;DHT22;50167;47.958;21.780;2023-02-03T07:36:18;5.67;49.65
63976;DHT22;50167;47.958;21.780;2023-02-03T07:38:44;5.31;51.62
63976;DHT22;50167;47.958;21.780;2023-02-03T07:41:10;5.56;52.61
63976;DHT22;50167;47.958;21.780;2023-02-03T07:43:36;5.69;51.18
63976;DHT22;50167;47.958;21.780;2023-02-03T07:46:03;5.42;50.01
63976;DHT22;50167;47.958;21.780;2023-02-03T07:48:29;5.31;53.93
63976;DHT22;50167;47.958;21.780;2023-02-03T07:50:55;5.69;50.32
63976;DHT22;50167;47.958;21.780;2023-02-03T07:53:21;5.43;49.06
63976;DHT22;50167;47.958;21.780;2023-02-03T07:55:48;5.21;49.34
63976;DHT22;50167;47.958;21.780;2023-02-03T07:58:14;5.60;50.39
63976;DHT22;50167;47.958;21.780;2023-02-03T08:00:42;5.43;50.88
63976;DHT22;50167;47.958;21.780;2023-02-03T08:03:08;5.22;53.64
63976;DHT22;50167;47.958;21.780;2023-02-03T08:05:35;5.50;52.58
63976;DHT22;50167;47.958;21.780;2023-02-03T08:08:01;5.43;53.18
63976;DHT22;50167;47.958;21.780;2023-02-03T08:10:27;5.32;51.68
63976;DHT22;50167;47.958;21.780;2023-02-03T08:12:54;5.28;55.25
63976;DHT22;50167;47.958;21.780;2023-02-03T08:15:22;5.45;50.91
63976;DHT22;50167;47.958;21.780;2023-02-03T08:17:49;5.32;55.48
63976;DHT22;50167;47.958;21.780;2023-02-03T08:20:15;5.32;53.42
63976;DHT22;50167;47.958;21.780;2023-02-03T08:22:41;5.50;53.55
63976;DHT22;50167;47.958;21.780;2023-02-03T08:25:08;5.39;54.36
63976;DHT22;50167;47.958;21.780;2023-02-03T08:27:35;5.31;54.37
63976;DHT22;50167;47.958;21.780;2023-02-03T08:30:02;5.25;51.52
63976;DHT22;50167;47.958;21.780;2023-02-03T08:32:28;5.41;51.51
63976;DHT22;50167;47.958;21.780;2023-02-03T08:34:54;5.31;50.77
63976;DHT22;50167;47.958;21.780;2023-02-03T08:37:23;5.26;50.75
63976;DHT22;50167;47.958;21.780;2023-02-03T08:39:51;5.41;50.70
63976;DHT22;50167;47.958;21.780;2023-02-03T08:42:18;5.36;50.74
63976;DHT22;50167;47.958;21.780;2023-02-03T08:44:44;5.33;51.09
63976;DHT22;50167;47.958;21.780;2023-02-03T08:47:11;5.32;51.90
63976;DHT22;50167;47.958;21.780;2023-02-03T08:49:38;5.29;50.91
63976;DHT22;50167;47.958;21.780;2023-02-03T08:52:06;5.26;51.25
63976;DHT22;50167;47.958;21.780;2023-02-03T08:54:33;5.49;52.22
63976;DHT22;50167;47.958;21.780;2023-02-03T08:57:00;5.50;52.23
63976;DHT22;50167;47.958;21.780;2023-02-03T08:59:26;5.41;51.66
63976;DHT22;50167;47.958;21.780;2023-02-03T09:01:52;5.25;51.88
63976;DHT22;50167;47.958;21.780;2023-02-03T09:04:19;5.45;53.56
63976;DHT22;50167;47.958;21.780;2023-02-03T09:06:47;5.42;52.57
63976;DHT22;50167;47.958;21.780;2023-02-03T09:09:14;5.33;52.38
63976;DHT22;50167;47.958;21.780;2023-02-03T09:11:41;5.28;52.24
63976;DHT22;50167;47.958;21.780;2023-02-03T09:14:08;5.39;53.60
63976;DHT22;50167;47.958;21.780;2023-02-03T09:16:34;5.50;52.83
63976;DHT22;50167;47.958;21.780;2023-02-03T09:19:01;5.38;53.02
63976;DHT22;50167;47.958;21.780;2023-02-03T09:21:27;5.25;52.38
63976;DHT22;50167;47.958;21.780;2023-02-03T09:23:53;5.36;52.18
63976;DHT22;50167;47.958;21.780;2023-02-03T09:26:20;5.26;53.23
63976;DHT22;50167;47.958;21.780;2023-02-03T09:28:46;5.47;53.73
63976;DHT22;50167;47.958;21.780;2023-02-03T09:31:14;5.49;52.56
63976;DHT22;50167;47.958;21.780;2023-02-03T09:33:45;5.41;54.03
63976;DHT22;50167;47.958;21.780;2023-02-03T09:36:12;5.33;53.75
63976;DHT22;50167;47.958;21.780;2023-02-03T09:38:38;5.25;54.17
63976;DHT22;50167;47.958;21.780;2023-02-03T09:46:57;5.43;54.30
63976;DHT22;50167;47.958;21.780;2023-02-03T09:49:46;5.36;52.70
63976;DHT22;50167;47.958;21.780;2023-02-03T09:52:21;5.28;53.46
63976;DHT22;50167;47.958;21.780;2023-02-03T09:55:04;5.52;53.40
63976;DHT22;50167;47.958;21.780;2023-02-03T09:58:03;5.38;52.99
63976;DHT22;50167;47.958;21.780;2023-02-03T10:00:34;5.56;54.64
63976;DHT22;50167;47.958;21.780;2023-02-03T10:03:22;6.01;50.90
63976;DHT22;50167;47.958;21.780;2023-02-03T10:20:03;6.11;50.03
63976;DHT22;50167;47.958;21.780;2023-02-03T10:22:33;6.00;50.56
63976;DHT22;50167;47.958;21.780;2023-02-03T10:25:10;5.89;51.19
63976;DHT22;50167;47.958;21.780;2023-02-03T10:27:36;5.84;52.45
63976;DHT22;50167;47.958;21.780;2023-02-03T10:30:28;5.89;52.59
63976;DHT22;50167;47.958;21.780;2023-02-03T10:33:00;5.90;53.25
63976;DHT22;50167;47.958;21.780;2023-02-03T10:35:40;6.00;53.54
63976;DHT22;50167;47.958;21.780;2023-02-03T10:38:04;6.11;52.98
63976;DHT22;50167;47.958;21.780;2023-02-03T10:40:32;6.36;51.23
63976;DHT22;50167;47.958;21.780;2023-02-03T10:42:59;6.45;50.95
63976;DHT22;50167;47.958;21.780;2023-02-03T10:45:43;6.46;50.40
63976;DHT22;50167;47.958;21.780;2023-02-03T10:48:14;6.45;50.24
63976;DHT22;50167;47.958;21.780;2023-02-03T10:50:45;6.38;50.63
63976;DHT22;50167;47.958;21.780;2023-02-03T10:56:03;6.45;50.67
63976;DHT22;50167;47.958;21.780;2023-02-03T10:58:31;6.60;50.80
63976;DHT22;50167;47.958;21.780;2023-02-03T11:08:17;7.62;49.63
63976;DHT22;50167;47.958;21.780;2023-02-03T11:10:45;7.73;48.43
63976;DHT22;50167;47.958;21.780;2023-02-03T11:13:24;8.05;47.93
63976;DHT22;50167;47.958;21.780;2023-02-03T11:16:00;8.20;46.21
63976;DHT22;50167;47.958;21.780;2023-02-03T11:21:54;7.97;46.54
63976;DHT22;50167;47.958;21.780;2023-02-03T11:24:30;7.69;45.92
63976;DHT22;50167;47.958;21.780;2023-02-03T11:27:02;7.28;45.61
63976;DHT22;50167;47.958;21.780;2023-02-03T11:29:32;6.83;47.82
63976;DHT22;50167;47.958;21.780;2023-02-03T11:37:40;6.72;48.76
63976;DHT22;50167;47.958;21.780;2023-02-03T11:45:27;6.84;48.43
63976;DHT22;50167;47.958;21.780;2023-02-03T11:47:58;6.86;48.63
63976;DHT22;50167;47.958;21.780;2023-02-03T11:50:38;6.90;47.95
63976;DHT22;50167;47.958;21.780;2023-02-03T12:08:23;6.72;48.32
63976;DHT22;50167;47.958;21.780;2023-02-03T12:11:10;6.55;49.12
63976;DHT22;50167;47.958;21.780;2023-02-03T12:25:02;5.93;51.22
63976;DHT22;50167;47.958;21.780;2023-02-03T12:30:40;5.49;52.44
63976;DHT22;50167;47.958;21.780;2023-02-03T12:33:23;5.26;52.75
63976;DHT22;50167;47.958;21.780;2023-02-03T12:36:04;5.47;52.51
63976;DHT22;50167;47.958;21.780;2023-02-03T12:38:43;5.36;52.67
63976;DHT22;50167;47.958;21.780;2023-02-03T12:41:16;5.50;52.86
63976;DHT22;50167;47.958;21.780;2023-02-03T12:43:47;5.53;51.69
63976;DHT22;50167;47.958;21.780;2023-02-03T12:46:23;5.22;52.07
63976;DHT22;50167;47.958;21.780;2023-02-03T12:51:47;5.42;50.87
63976;DHT22;50167;47.958;21.780;2023-02-03T12:56:57;5.67;50.61
63976;DHT22;50167;47.958;21.780;2023-02-03T12:59:27;5.39;50.83
63976;DHT22;50167;47.958;21.780;2023-02-03T13:02:13;5.29;52.23
63976;DHT22;50167;47.958;21.780;2023-02-03T13:04:52;5.70;50.38
63976;DHT22;50167;47.958;21.780;2023-02-03T13:07:29;5.33;50.69
63976;DHT22;50167;47.958;21.780;2023-02-03T13:10:13;5.52;51.34
63976;DHT22;50167;47.958;21.780;2023-02-03T13:12:48;5.46;50.70
63976;DHT22;50167;47.958;21.780;2023-02-03T13:15:23;5.28;52.01
63976;DHT22;50167;47.958;21.780;2023-02-03T13:18:14;5.54;51.13
63976;DHT22;50167;47.958;21.780;2023-02-03T13:20:36;5.19;52.08
63976;DHT22;50167;47.958;21.780;2023-02-03T13:23:11;5.59;51.23
63976;DHT22;50167;47.958;21.780;2023-02-03T13:26:16;5.25;51.86
63976;DHT22;50167;47.958;21.780;2023-02-03T13:42:41;5.42;51.94
63976;DHT22;50167;47.958;21.780;2023-02-03T13:45:38;5.36;53.22
63976;DHT22;50167;47.958;21.780;2023-02-03T13:48:16;5.39;51.87
63976;DHT22;50167;47.958;21.780;2023-02-03T13:50:44;5.53;52.53
63976;DHT22;50167;47.958;21.780;2023-02-03T13:53:20;5.63;50.74
63976;DHT22;50167;47.958;21.780;2023-02-03T13:56:02;5.18;52.07
63976;DHT22;50167;47.958;21.780;2023-02-03T13:58:40;5.54;50.78
63976;DHT22;50167;47.958;21.780;2023-02-03T14:03:59;5.58;50.73
63976;DHT22;50167;47.958;21.780;2023-02-03T14:11:50;5.41;53.75
63976;DHT22;50167;47.958;21.780;2023-02-03T14:16:50;5.25;54.92
63976;DHT22;50167;47.958;21.780;2023-02-03T14:22:06;5.33;55.72
63976;DHT22;50167;47.958;21.780;2023-02-03T14:24:38;5.43;54.26
63976;DHT22;50167;47.958;21.780;2023-02-03T14:27:23;5.22;56.25
63976;DHT22;50167;47.958;21.780;2023-02-03T14:30:12;5.47;55.56
63976;DHT22;50167;47.958;21.780;2023-02-03T14:33:00;5.31;58.67
63976;DHT22;50167;47.958;21.780;2023-02-03T14:35:38;5.31;56.66
63976;DHT22;50167;47.958;21.780;2023-02-03T14:38:10;5.28;60.25
63976;DHT22;50167;47.958;21.780;2023-02-03T14:43:34;5.32;61.01
63976;DHT22;50167;47.958;21.780;2023-02-03T14:58:02;6.19;59.53
63976;DHT22;50167;47.958;21.780;2023-02-03T15:00:34;6.33;56.24
63976;DHT22;50167;47.958;21.780;2023-02-03T15:05:56;5.58;63.42
63976;DHT22;50167;47.958;21.780;2023-02-03T15:08:43;6.90;58.89
63976;DHT22;50167;47.958;21.780;2023-02-03T15:11:32;6.36;55.48
63976;DHT22;50167;47.958;21.780;2023-02-03T15:14:25;4.97;61.00
63976;DHT22;50167;47.958;21.780;2023-02-03T15:16:59;5.80;62.11
63976;DHT22;50167;47.958;21.780;2023-02-03T15:19:33;6.73;59.84
63976;DHT22;50167;47.958;21.780;2023-02-03T15:22:01;7.47;57.23
63976;DHT22;50167;47.958;21.780;2023-02-03T15:24:33;6.55;57.57
63976;DHT22;50167;47.958;21.780;2023-02-03T15:26:59;5.07;60.35
63976;DHT22;50167;47.958;21.780;2023-02-03T15:29:29;5.41;65.08
63976;DHT22;50167;47.958;21.780;2023-02-03T15:32:12;6.36;63.51
63976;DHT22;50167;47.958;21.780;2023-02-03T15:34:48;7.31;59.77
63976;DHT22;50167;47.958;21.780;2023-02-03T15:40:16;6.72;57.95
63976;DHT22;50167;47.958;21.780;2023-02-03T15:43:02;5.07;60.38
63976;DHT22;50167;47.958;21.780;2023-02-03T15:45:37;5.73;65.77
63976;DHT22;50167;47.958;21.780;2023-02-03T15:48:18;6.97;61.36
63976;DHT22;50167;47.958;21.780;2023-02-03T15:51:02;7.56;60.78
63976;DHT22;50167;47.958;21.780;2023-02-03T15:53:42;8.03;57.89
63976;DHT22;50167;47.958;21.780;2023-02-03T15:56:03;6.83;57.88
63976;DHT22;50167;47.958;21.780;2023-02-03T15:58:43;5.39;63.21
63976;DHT22;50167;47.958;21.780;2023-02-03T16:01:07;5.53;67.71
63976;DHT22;50167;47.958;21.780;2023-02-03T16:03:45;7.00;62.78
63976;DHT22;50167;47.958;21.780;2023-02-03T16:06:32;7.80;59.34
63976;DHT22;50167;47.958;21.780;2023-02-03T16:09:05;7.04;57.82
63976;DHT22;50167;47.958;21.780;2023-02-03T16:11:35;5.54;62.63
63976;DHT22;50167;47.958;21.780;2023-02-03T16:14:11;5.43;66.10
63976;DHT22;50167;47.958;21.780;2023-02-03T16:16:42;6.63;63.91
63976;DHT22;50167;47.958;21.780;2023-02-03T16:19:16;7.49;61.01
63976;DHT22;50167;47.958;21.780;2023-02-03T16:21:54;7.82;58.98
63976;DHT22;50167;47.958;21.780;2023-02-03T16:24:43;7.10;57.90
63976;DHT22;50167;47.958;21.780;2023-02-03T16:27:33;5.43;61.71
63976;DHT22;50167;47.958;21.780;2023-02-03T16:33:09;6.59;65.24
63976;DHT22;50167;47.958;21.780;2023-02-03T16:35:48;7.34;61.04
63976;DHT22;50167;47.958;21.780;2023-02-03T16:38:32;7.62;59.53
63976;DHT22;50167;47.958;21.780;2023-02-03T16:41:17;7.67;57.99
63976;DHT22;50167;47.958;21.780;2023-02-03T16:44:05;6.05;61.94
63976;DHT22;50167;47.958;21.780;2023-02-03T16:46:51;5.00;67.75
63976;DHT22;50167;47.958;21.780;2023-02-03T16:49:36;5.96;66.46
63976;DHT22;50167;47.958;21.780;2023-02-03T16:52:20;6.98;62.91
63976;DHT22;50167;47.958;21.780;2023-02-03T16:54:47;7.53;60.86
63976;DHT22;50167;47.958;21.780;2023-02-03T16:57:13;7.89;59.31
63976;DHT22;50167;47.958;21.780;2023-02-03T16:59:39;7.17;58.94
63976;DHT22;50167;47.958;21.780;2023-02-03T17:02:05;5.52;62.28
63976;DHT22;50167;47.958;21.780;2023-02-03T17:04:32;5.22;67.41
63976;DHT22;50167;47.958;21.780;2023-02-03T17:06:58;6.46;64.86
63976;DHT22;50167;47.958;21.780;2023-02-03T17:09:25;7.21;61.68
63976;DHT22;50167;47.958;21.780;2023-02-03T17:11:51;7.57;60.29
63976;DHT22;50167;47.958;21.780;2023-02-03T17:14:18;7.65;60.13
63976;DHT22;50167;47.958;21.780;2023-02-03T17:16:45;7.87;59.59
63976;DHT22;50167;47.958;21.780;2023-02-03T17:19:11;7.50;58.42
63976;DHT22;50167;47.958;21.780;2023-02-03T17:21:38;5.86;61.76
63976;DHT22;50167;47.958;21.780;2023-02-03T17:24:04;5.22;67.03
63976;DHT22;50167;47.958;21.780;2023-02-03T17:26:31;6.28;65.22
63976;DHT22;50167;47.958;21.780;2023-02-03T17:28:59;6.94;62.76
63976;DHT22;50167;47.958;21.780;2023-02-03T17:31:27;7.21;62.22
63976;DHT22;50167;47.958;21.780;2023-02-03T17:33:54;7.57;60.39
63976;DHT22;50167;47.958;21.780;2023-02-03T17:36:21;7.49;60.53
63976;DHT22;50167;47.958;21.780;2023-02-03T17:38:54;6.80;61.13
63976;DHT22;50167;47.958;21.780;2023-02-03T17:41:24;5.38;66.05
63976;DHT22;50167;47.958;21.780;2023-02-03T17:43:51;5.74;67.52
63976;DHT22;50167;47.958;21.780;2023-02-03T17:46:23;6.63;64.46
63976;DHT22;50167;47.958;21.780;2023-02-03T17:48:50;7.03;62.89
63976;DHT22;50167;47.958;21.780;2023-02-03T17:51:21;7.36;61.70
63976;DHT22;50167;47.958;21.780;2023-02-03T17:53:50;7.49;61.09
63976;DHT22;50167;47.958;21.780;2023-02-03T17:56:23;7.49;60.67
63976;DHT22;50167;47.958;21.780;2023-02-03T17:58:58;7.45;60.28
63976;DHT22;50167;47.958;21.780;2023-02-03T18:01:25;7.56;60.60
63976;DHT22;50167;47.958;21.780;2023-02-03T18:03:58;7.07;59.53
63976;DHT22;50167;47.958;21.780;2023-02-03T18:06:28;5.45;64.21
63976;DHT22;50167;47.958;21.780;2023-02-03T18:08:55;5.90;66.61
63976;DHT22;50167;47.958;21.780;2023-02-03T18:11:28;6.66;63.80
63976;DHT22;50167;47.958;21.780;2023-02-03T18:13:55;6.98;62.73
63976;DHT22;50167;47.958;21.780;2023-02-03T18:16:25;7.10;62.07
63976;DHT22;50167;47.958;21.780;2023-02-03T18:18:55;7.31;61.29
63976;DHT22;50167;47.958;21.780;2023-02-03T18:21:23;7.24;61.46
63976;DHT22;50167;47.958;21.780;2023-02-03T18:23:50;7.31;61.32
63976;DHT22;50167;47.958;21.780;2023-02-03T18:26:19;7.03;60.37
63976;DHT22;50167;47.958;21.780;2023-02-03T18:28:45;7.07;61.29